Aeroporto :
LOGIN :

Iscrizione | Disclaimer

   EN    FR    IT 

 










Sommario :    VFR   VFR Marginale   IFR   IFR Intensivo   IFR Molto Intensivo
Visibilità : 
Base nubi : 
>= 8 km
>= 3000ft
5 / 8 km
1000 / 3000 ft
1500m / 5 km
500 / 1000 ft
800 / 1500m
200 / 500 ft
< 800m
< 200 ft
Simboli :   Temporali  Nebbia  Neve Forte  Precipitazioni Forti  Vento > 20 kt
SIGMETs :   Varie  Temporali  Ghiacco  Turbolenza  Onda orograficha  Ceneri Vulcaniche







- Altitudine del aeroporto : 74 ft
- Codice IATA : EIN


EHEH - Eindhoven

ULTIMO METAR :
  • 251025Z AUTO 13004KT 060V200 9999 NCD 30/13 Q1019 BLU 12005KT CAVOK

METARs OBSOLETI :
  • 250957Z AUTO 10004KT 080V200 9999 FEW270 SCT350 29/12 Q1019 BLU 11005KT CAVOK
  • 250955Z AUTO 09004KT 070V200 9999 BKN270 BKN350 28/12 Q1019 BLU VRB02KT CAVOK
  • 250925Z AUTO VRB03KT 9999 BKN270 OVC330 27/12 Q1019 BLU VRB02KT CAVOK
  • 250855Z AUTO VRB02KT 9999 OVC260 26/12 Q1019 BLU VRB02KT CAVOK
  • 250825Z AUTO 15003KT 100V220 9999 OVC260 26/12 Q1019 BLU VRB02KT CAVOK

TAF COR TAF EHEH
Valido dal 25 a 06 ore il 26 a 12 ore UTC


250819Z 2506/2612 VRB03KT CAVOK
BECMG 2511/2514 36005KT
Nessun NOTAM noto per questo aeroporto.



MetMap, La meteo Aeronautica in un colpo d'occhio ! - Copyright ORBIFLY Dicembre 2007 - Disclaimer

ORBIFLY MET'MAP TEAM :

Programmazione e sviluppo : Alexandra Zaïnal
Concezione e sviluppo : Baudouin d'Aumeries
Co-Programmazione e sviluppo : Marc-Olivier Méhu
Supporto tecnico e logistico : Manuel Goepfert
Aiuto per la traduzione : Arnaldo La Scala

Contatto : metmap@orbifly.com




FONTI E CREDITI :

   NOAA